Terminal Aerodrome Forecast
Issued by NWS

Current Version | Previous Version | Text Only | Print | Product List | Glossary On
Versions: 1 2 3 4 5 6 7 8 9 10 11 12 13 14 15 16 17 18 19 20 21 22 23 24 25 26 27 28 29 30 31 32 33 34
000
FTUS45 KGGW 012300
TAFOLF
TAF
KOLF 012320Z 0200/0224 29009KT P6SM SCT060
     FM020300 VRB03KT P6SM SCT080
     FM021200 27007KT P6SM BKN070
     FM021800 30022G30KT P6SM SCT050=

USA.gov is the U.S. government's official web portal to all federal, state and local government web resources and services.